Time;durP1;ratioP1;P1;durP2;ratioP2;P2;SDS_P1;SDS_P2;PMS_P1;PMS_P2;Temp;Humidity;BMP_temperature;BMP_pressure;BME280_temperature;BME280_humidity;BME280_pressure;Samples;Min_cycle;Max_cycle;Signal;HPM_P1;HPM_P2
2022/08/22 00:00:15;;;;;;;5.70;4.10;;;;;;;29.36;47.51;100035.02;102947;1325;61586;-82
2022/08/22 00:03:19;;;;;;;5.70;3.80;;;;;;;29.36;47.23;100023.79;102933;1325;73853;-82
2022/08/22 00:06:40;;;;;;;5.80;4.20;;;;;;;29.35;47.44;100031.88;103075;1324;74675;-82
2022/08/22 00:09:45;;;;;;;6.10;4.20;;;;;;;29.35;47.35;100027.77;102581;1329;61284;-82
2022/08/22 00:12:36;;;;;;;5.90;4.20;;;;;;;29.35;47.48;100022.84;102457;1335;61789;-82
2022/08/22 00:15:21;;;;;;;5.30;4.30;;;;;;;29.35;47.43;100016.15;102449;1329;73871;-82
2022/08/22 00:17:55;;;;;;;6.00;4.10;;;;;;;29.35;47.54;100016.99;102750;1329;75819;-82
2022/08/22 00:20:59;;;;;;;5.50;4.40;;;;;;;29.35;47.40;100015.55;102693;1328;61294;-82
2022/08/22 00:23:29;;;;;;;7.70;4.40;;;;;;;29.35;47.50;100012.89;103117;1323;61205;-82
2022/08/22 00:26:01;;;;;;;5.60;3.90;;;;;;;29.35;47.40;100016.10;103239;1323;73997;-81
2022/08/22 00:28:39;;;;;;;7.10;4.20;;;;;;;29.35;47.57;100017.06;103357;1322;75283;-81
2022/08/22 00:31:25;;;;;;;5.80;4.40;;;;;;;29.35;47.55;100017.58;103366;1324;61357;-81
2022/08/22 00:34:23;;;;;;;6.30;4.00;;;;;;;29.35;47.50;100014.02;103341;1323;61337;-81
2022/08/22 00:37:01;;;;;;;6.10;4.50;;;;;;;29.34;47.59;100018.77;102687;1328;72256;-81
2022/08/22 00:39:41;;;;;;;6.40;4.10;;;;;;;29.34;47.36;100023.63;102550;1330;74774;-81
2022/08/22 00:42:24;;;;;;;5.00;3.90;;;;;;;29.35;47.49;100029.44;102743;1328;61303;-82
2022/08/22 00:44:55;;;;;;;5.60;4.30;;;;;;;29.34;47.51;100038.00;102670;1329;61620;-82
2022/08/22 00:47:27;;;;;;;5.80;4.10;;;;;;;29.35;47.53;100038.46;103010;1322;73520;-81
2022/08/22 00:50:12;;;;;;;6.00;4.40;;;;;;;29.34;47.73;100039.27;103342;1320;74820;-82
2022/08/22 00:52:58;;;;;;;6.30;3.90;;;;;;;29.34;47.69;100035.66;103443;1320;62382;-81
2022/08/22 00:56:07;;;;;;;5.60;4.30;;;;;;;29.34;47.51;100034.73;103964;1314;61335;-81
2022/08/22 00:59:11;;;;;;;4.90;4.20;;;;;;;29.33;47.64;100036.07;103207;1322;71830;-81
2022/08/22 01:01:43;;;;;;;6.10;4.20;;;;;;;29.33;47.64;100030.91;102653;1326;74589;-81
2022/08/22 01:04:12;;;;;;;6.30;4.20;;;;;;;29.33;47.74;100022.38;102694;1325;62537;-81
2022/08/22 01:06:52;;;;;;;;;;;;;;;29.33;47.41;100022.14;102697;1326;61361;-80
2022/08/22 01:09:18;;;;;;;5.10;4.10;;;;;;;29.31;47.59;100023.85;102678;1326;72705;-81
2022/08/22 01:12:01;;;;;;;4.80;4.20;;;;;;;29.31;47.72;100025.08;102680;1328;62509;-81
2022/08/22 01:14:40;;;;;;;6.00;4.30;;;;;;;29.31;47.48;100021.48;102998;1324;61163;-81
2022/08/22 01:17:26;;;;;;;5.30;4.20;;;;;;;29.32;47.39;100031.60;103116;1322;61332;-80
2022/08/22 01:20:00;;;;;;;5.00;4.10;;;;;;;29.32;47.45;100036.82;103144;1323;71827;-79
2022/08/22 01:22:53;;;;;;;6.00;4.10;;;;;;;29.32;47.63;100038.84;103268;1322;76082;-79
2022/08/22 01:25:49;;;;;;;6.40;4.10;;;;;;;29.31;47.48;100038.51;102523;1331;61860;-80
2022/08/22 01:28:43;;;;;;;6.20;4.20;;;;;;;29.32;47.64;100036.29;102516;1332;61220;-80
2022/08/22 01:31:33;;;;;;;5.40;4.10;;;;;;;29.31;47.54;100034.73;102519;1332;72667;-80
2022/08/22 01:34:36;;;;;;;4.90;4.10;;;;;;;29.31;47.61;100035.15;102537;1331;75169;-80
2022/08/22 01:37:11;;;;;;;6.80;4.20;;;;;;;29.30;47.55;100037.77;102786;1326;61233;-80
2022/08/22 01:39:54;;;;;;;7.60;4.10;;;;;;;29.31;47.52;100033.89;103503;1318;61296;-80
2022/08/22 01:42:33;;;;;;;5.40;4.40;;;;;;;29.30;47.60;100027.56;103860;1317;73710;-80
2022/08/22 01:45:14;;;;;;;6.90;4.00;;;;;;;29.31;47.59;100016.15;103860;1315;74849;-80
2022/08/22 01:47:54;;;;;;;6.00;4.70;;;;;;;29.31;47.61;100024.48;103884;1317;61178;-80
2022/08/22 01:50:30;;;;;;;6.50;4.20;;;;;;;29.30;47.53;100023.05;103895;1317;62315;-80
2022/08/22 01:53:08;;;;;;;5.70;4.40;;;;;;;29.31;47.50;100025.19;103864;1317;72919;-79
2022/08/22 01:55:44;;;;;;;5.40;4.40;;;;;;;29.30;47.60;100028.15;103878;1317;74652;-80
2022/08/22 01:58:14;;;;;;;6.10;4.40;;;;;;;29.30;47.46;100028.31;103676;1318;61186;-79
2022/08/22 02:00:51;;;;;;;5.00;4.10;;;;;;;29.30;47.66;100025.05;103865;1317;61383;-80
2022/08/22 02:03:32;;;;;;;5.60;3.80;;;;;;;29.30;47.73;100026.86;104271;1310;72751;-80
2022/08/22 02:06:14;;;;;;;5.20;4.20;;;;;;;29.30;47.37;100025.27;104535;1309;74823;-81
2022/08/22 02:08:40;;;;;;;6.40;4.20;;;;;;;29.30;47.49;100028.31;104541;1309;61225;-80
2022/08/22 02:11:10;;;;;;;5.70;4.10;;;;;;;29.30;47.68;100029.95;104608;1309;61364;-80
2022/08/22 02:13:53;;;;;;;6.20;4.40;;;;;;;29.30;47.47;100027.57;104494;1309;73272;-80
2022/08/22 02:16:34;;;;;;;5.20;4.10;;;;;;;29.30;47.75;100030.86;104555;1309;75944;-80
2022/08/22 02:19:33;;;;;;;5.50;4.10;;;;;;;29.30;47.68;100025.60;104533;1309;61578;-80
2022/08/22 02:22:30;;;;;;;4.90;3.90;;;;;;;29.30;47.71;100014.05;104219;1315;61532;-80
2022/08/22 02:25:03;;;;;;;5.50;4.30;;;;;;;29.30;47.60;100006.80;103393;1321;72817;-80
2022/08/22 02:27:50;;;;;;;5.10;4.40;;;;;;;29.30;47.79;100007.52;103407;1321;75872;-80
2022/08/22 02:30:21;;;;;;;5.60;4.20;;;;;;;29.30;47.61;100008.61;103452;1321;61212;-80
2022/08/22 02:33:04;;;;;;;6.20;4.30;;;;;;;29.30;47.66;100006.27;103242;1321;62054;-80
2022/08/22 02:35:42;;;;;;;5.60;4.10;;;;;;;29.30;47.71;100003.39;103384;1321;71892;-80
2022/08/22 02:38:29;;;;;;;6.00;4.10;;;;;;;29.30;47.47;100002.84;103378;1321;74656;-80
2022/08/22 02:41:24;;;;;;;5.70;4.30;;;;;;;29.29;47.59;100004.38;103388;1321;61364;-81
2022/08/22 02:44:12;;;;;;;5.00;4.20;;;;;;;29.29;47.65;100005.30;102701;1326;61916;-80
2022/08/22 02:46:45;;;;;;;5.30;4.10;;;;;;;29.29;47.59;100006.77;102485;1332;72913;-80
2022/08/22 02:49:45;;;;;;;7.70;4.00;;;;;;;29.28;47.71;100006.95;102503;1331;75763;-80
2022/08/22 02:52:25;;;;;;;7.50;4.50;;;;;;;29.28;47.65;100005.41;102525;1332;61604;-80
2022/08/22 02:54:53;;;;;;;6.40;4.20;;;;;;;29.28;47.63;100004.63;102540;1332;61547;-81
2022/08/22 02:57:25;;;;;;;7.80;4.00;;;;;;;29.29;47.69;100008.40;102485;1331;72748;-79
2022/08/22 03:00:17;;;;;;;5.40;4.00;;;;;;;29.28;47.53;100006.79;102623;1326;75012;-80
2022/08/22 03:02:58;;;;;;;5.20;4.00;;;;;;;29.29;47.57;100004.63;103042;1323;61264;-80
2022/08/22 03:05:47;;;;;;;7.00;3.90;;;;;;;29.28;47.54;100001.56;102169;1320;1700472;-80
2022/08/22 03:08:21;;;;;;;;;;;;;;;29.28;47.59;100003.02;102982;1321;73957;-80
2022/08/22 03:11:06;;;;;;;6.30;4.20;;;;;;;29.25;47.62;100002.19;103095;1320;74980;-80
2022/08/22 03:14:01;;;;;;;6.00;4.30;;;;;;;29.27;47.55;99998.27;103302;1320;61692;-80
2022/08/22 03:16:36;;;;;;;5.90;4.30;;;;;;;29.28;47.78;99996.74;102559;1326;61400;-79
2022/08/22 03:19:13;;;;;;;5.90;4.20;;;;;;;29.28;47.60;99994.66;102564;1325;71808;-79
2022/08/22 03:21:57;;;;;;;5.70;4.30;;;;;;;29.29;47.65;99998.05;103454;1323;75828;-79
2022/08/22 03:24:28;;;;;;;5.40;4.10;;;;;;;29.29;47.49;99999.08;103445;1317;61414;-80
2022/08/22 03:27:10;;;;;;;5.20;4.20;;;;;;;29.30;47.73;99998.63;103905;1316;60634;-81
2022/08/22 03:29:44;;;;;;;5.50;4.20;;;;;;;29.31;47.80;100001.06;103846;1316;72718;-81
2022/08/22 03:32:20;;;;;;;5.40;4.10;;;;;;;29.31;47.56;100005.37;103762;1316;76129;-81
2022/08/22 03:35:04;;;;;;;5.30;4.00;;;;;;;29.31;47.46;100004.63;103890;1317;61202;-81
2022/08/22 03:37:39;;;;;;;5.30;4.20;;;;;;;29.32;47.72;100005.29;104060;1316;61766;-82
2022/08/22 03:40:49;;;;;;;6.30;4.40;;;;;;;29.32;47.58;100009.65;104244;1318;73087;-82
2022/08/22 03:43:43;;;;;;;6.90;4.20;;;;;;;29.31;47.43;100007.05;103192;1322;74976;-82
2022/08/22 03:46:14;;;;;;;6.70;4.50;;;;;;;29.31;47.64;100002.90;103210;1322;61259;-81
2022/08/22 03:49:21;;;;;;;5.40;4.30;;;;;;;29.30;47.55;100003.93;103269;1322;61486;-81
2022/08/22 03:52:11;;;;;;;9.50;4.50;;;;;;;29.28;47.28;100002.11;102717;1326;72633;-81
2022/08/22 03:54:56;;;;;;;11.20;5.00;;;;;;;29.27;47.34;99999.36;103190;1323;74866;-80
2022/08/22 03:58:03;;;;;;;6.80;4.40;;;;;;;29.26;47.26;99997.28;103243;1323;61312;-80
2022/08/22 04:00:34;;;;;;;11.00;4.90;;;;;;;29.25;47.12;99999.39;102565;1329;61299;-80
2022/08/22 04:03:34;;;;;;;8.40;4.50;;;;;;;29.24;47.25;100002.77;102572;1329;72632;-81
2022/08/22 04:06:09;;;;;;;8.40;4.60;;;;;;;29.22;46.96;100014.85;102588;1329;75017;-80
2022/08/22 04:08:47;;;;;;;8.10;5.20;;;;;;;29.22;47.00;100019.38;102603;1329;62357;-80
2022/08/22 04:11:38;;;;;;;9.70;5.00;;;;;;;29.22;47.00;100024.59;102594;1329;61294;-80
2022/08/22 04:14:23;;;;;;;9.00;5.10;;;;;;;29.21;46.80;100026.28;102632;1329;72887;-80
2022/08/22 04:16:49;;;;;;;10.20;5.40;;;;;;;29.20;46.80;100028.23;102640;1329;74855;-80
2022/08/22 04:19:48;;;;;;;8.00;5.60;;;;;;;29.20;46.67;100027.52;102576;1329;61330;-80
2022/08/22 04:22:39;;;;;;;7.10;5.00;;;;;;;29.19;46.71;100036.34;103203;1322;61273;-81
2022/08/22 04:25:11;;;;;;;9.10;5.60;;;;;;;29.19;46.42;100035.98;103239;1322;73900;-80
2022/08/22 04:27:52;;;;;;;10.40;5.40;;;;;;;29.18;46.58;100040.41;103221;1323;76012;-81
2022/08/22 04:30:21;;;;;;;8.90;5.20;;;;;;;29.17;46.27;100041.48;103852;1317;60308;-81
2022/08/22 04:32:59;;;;;;;;;;;;;;;29.15;46.37;100046.69;104538;1309;61311;-80
2022/08/22 04:35:38;;;;;;;9.70;5.70;;;;;;;29.12;46.22;100043.65;104500;1309;72773;-81
2022/08/22 04:38:10;;;;;;;6.20;4.90;;;;;;;29.11;46.35;100046.77;104560;1308;75190;-80
2022/08/22 04:40:41;;;;;;;8.50;5.60;;;;;;;29.11;46.04;100045.73;104515;1309;61068;-81
2022/08/22 04:43:16;;;;;;;9.00;5.50;;;;;;;29.12;46.12;100048.77;104582;1309;61331;-80
2022/08/22 04:45:56;;;;;;;10.20;5.40;;;;;;;29.11;46.22;100052.59;104539;1309;72716;-80
2022/08/22 04:48:51;;;;;;;8.50;5.70;;;;;;;29.12;46.01;100056.92;104508;1309;74144;-81
2022/08/22 04:51:22;;;;;;;8.90;5.70;;;;;;;29.11;46.03;100058.09;104577;1309;61404;-80
2022/08/22 04:54:08;;;;;;;10.00;6.20;;;;;;;29.11;46.02;100062.74;104523;1309;61625;-80
2022/08/22 04:56:58;;;;;;;10.10;5.70;;;;;;;29.11;46.06;100065.33;104287;1315;73785;-80
2022/08/22 04:59:24;;;;;;;9.40;5.50;;;;;;;29.11;45.86;100069.14;104169;1314;75851;-80
2022/08/22 05:01:54;;;;;;;7.70;5.30;;;;;;;29.12;45.90;100070.48;104224;1315;61296;-80
2022/08/22 05:04:29;;;;;;;10.10;5.40;;;;;;;29.12;45.73;100074.83;104258;1315;61480;-80
2022/08/22 05:07:25;;;;;;;9.10;5.90;;;;;;;29.13;45.81;100082.64;104182;1315;72861;-81
2022/08/22 05:09:58;;;;;;;8.60;5.60;;;;;;;29.13;45.77;100082.84;104109;1315;73617;-80
2022/08/22 05:12:29;;;;;;;11.00;6.00;;;;;;;29.14;45.90;100088.95;104214;1315;61511;-82
2022/08/22 05:15:16;;;;;;;9.60;5.80;;;;;;;29.14;45.76;100085.82;104127;1316;61419;-80
2022/08/22 05:17:42;;;;;;;8.90;5.80;;;;;;;29.14;45.87;100091.39;104198;1315;73721;-81
2022/08/22 05:20:11;;;;;;;10.00;5.60;;;;;;;29.15;45.88;100102.40;104081;1315;62371;-80
2022/08/22 05:22:39;;;;;;;;;;;;;;;29.15;45.71;100107.63;103912;1314;61240;-80
2022/08/22 05:25:09;;;;;;;10.20;6.50;;;;;;;29.13;45.90;100105.90;104056;1315;61740;-81
2022/08/22 05:27:39;;;;;;;10.80;6.60;;;;;;;29.13;45.84;100103.86;104035;1314;73844;-80
2022/08/22 05:30:08;;;;;;;10.00;6.50;;;;;;;29.14;45.78;100104.17;104224;1313;75869;-80
2022/08/22 05:32:57;;;;;;;11.10;6.40;;;;;;;29.14;45.81;100105.23;104216;1315;61416;-80
2022/08/22 05:35:32;;;;;;;8.00;5.80;;;;;;;29.14;45.85;100106.83;104279;1312;61409;-80
2022/08/22 05:37:58;;;;;;;10.10;6.20;;;;;;;29.14;45.70;100112.45;104272;1308;72926;-80
2022/08/22 05:40:26;;;;;;;11.60;6.10;;;;;;;29.15;45.84;100117.40;104442;1309;61313;-80
2022/08/22 05:42:53;;;;;;;12.80;6.00;;;;;;;29.15;45.62;100118.70;104352;1309;61193;-80
2022/08/22 05:45:19;;;;;;;9.70;5.70;;;;;;;29.15;45.70;100120.88;104363;1309;61158;-81
2022/08/22 05:47:48;;;;;;;10.10;6.30;;;;;;;29.15;45.61;100118.29;104246;1309;73935;-81
2022/08/22 05:50:34;;;;;;;9.60;6.00;;;;;;;29.16;45.85;100119.69;104429;1309;76262;-81
2022/08/22 05:53:28;;;;;;;11.30;6.40;;;;;;;29.16;45.74;100123.83;104293;1312;61444;-82
2022/08/22 05:56:02;;;;;;;13.60;6.30;;;;;;;29.16;45.47;100125.12;104472;1309;61338;-81
2022/08/22 05:58:46;;;;;;;13.60;6.30;;;;;;;29.15;45.64;100126.23;104586;1307;73760;-81
2022/08/22 06:01:23;;;;;;;15.20;6.60;;;;;;;29.14;45.56;100126.42;104325;1309;75722;-81
2022/08/22 06:04:13;;;;;;;16.00;6.60;;;;;;;29.14;45.61;100127.84;104486;1309;60442;-80
2022/08/22 06:07:07;;;;;;;16.20;6.70;;;;;;;29.13;45.47;100130.49;104465;1312;61260;-82
2022/08/22 06:10:23;;;;;;;18.80;6.50;;;;;;;29.12;45.76;100132.94;104441;1309;73294;-82
2022/08/22 06:13:13;;;;;;;10.30;6.60;;;;;;;29.11;45.65;100135.40;103879;1313;75540;-81
2022/08/22 06:15:59;;;;;;;13.80;6.50;;;;;;;29.12;45.68;100137.47;104450;1314;60565;-80
2022/08/22 06:18:25;;;;;;;12.80;6.20;;;;;;;29.13;45.75;100135.77;103826;1315;61166;-81
2022/08/22 06:20:59;;;;;;;13.70;6.30;;;;;;;29.13;45.58;100134.30;103871;1315;74072;-81
2022/08/22 06:23:32;;;;;;;14.30;6.40;;;;;;;29.13;45.67;100140.79;104228;1315;74746;-82
2022/08/22 06:25:59;;;;;;;15.10;6.60;;;;;;;29.14;45.40;100139.13;104142;1315;61289;-82
2022/08/22 06:28:26;;;;;;;15.30;7.10;;;;;;;29.13;45.47;100143.30;104142;1315;61859;-82
2022/08/22 06:30:52;;;;;;;15.30;6.50;;;;;;;29.13;45.45;100146.92;104201;1315;74000;-81
2022/08/22 06:33:22;;;;;;;11.00;6.20;;;;;;;29.13;45.38;100148.95;103900;1315;61307;-81
2022/08/22 06:38:55;;;;;;;10.90;5.90;;;;;;;29.14;45.47;100156.44;104028;1315;61334;-80
2022/08/22 06:41:21;;;;;;;9.00;6.00;;;;;;;29.15;45.49;100157.12;104042;1314;72922;-80
2022/08/22 06:43:46;;;;;;;10.40;6.20;;;;;;;29.16;45.49;100155.22;103896;1315;61554;-80
2022/08/22 06:46:12;;;;;;;10.50;6.20;;;;;;;29.16;45.31;100156.07;103834;1315;61504;-80
2022/08/22 06:48:37;;;;;;;9.90;6.20;;;;;;;29.17;45.38;100156.70;103843;1309;61319;-80
2022/08/22 06:51:05;;;;;;;10.90;5.30;;;;;;;29.17;45.33;100153.23;104366;1309;61429;-80
2022/08/22 06:53:39;;;;;;;12.20;6.40;;;;;;;29.18;45.29;100158.92;104206;1312;61048;-80
2022/08/22 06:56:05;;;;;;;10.40;6.40;;;;;;;29.18;45.49;100159.78;104361;1309;61262;-80
2022/08/22 06:58:44;;;;;;;10.10;5.60;;;;;;;29.18;45.29;100163.21;104351;1309;61470;-80
2022/08/22 07:01:13;;;;;;;9.30;5.90;;;;;;;29.19;45.43;100162.94;104357;1312;74155;-80
2022/08/22 07:03:52;;;;;;;11.20;6.40;;;;;;;29.19;45.19;100163.98;104502;1309;74781;-80
2022/08/22 07:06:48;;;;;;;9.50;6.10;;;;;;;29.19;45.62;100166.17;104434;1308;61449;-80
2022/08/22 07:09:26;;;;;;;11.90;6.50;;;;;;;29.19;45.29;100164.16;104582;1308;61303;-80
2022/08/22 07:11:54;;;;;;;10.10;6.10;;;;;;;29.19;45.39;100167.80;104538;1308;73871;-80
2022/08/22 07:14:50;;;;;;;10.20;6.20;;;;;;;29.20;45.34;100163.03;104846;1307;74597;-80
2022/08/22 07:17:23;;;;;;;11.90;5.80;;;;;;;29.20;45.35;100161.23;104108;1313;61062;-80
2022/08/22 07:20:22;;;;;;;8.80;6.10;;;;;;;29.21;45.58;100166.55;103906;1315;61496;-80
2022/08/22 07:23:09;;;;;;;9.80;5.80;;;;;;;29.20;45.56;100166.39;103784;1315;73969;-80
2022/08/22 07:25:53;;;;;;;10.60;6.50;;;;;;;29.21;45.43;100169.96;104981;1313;75113;-80
2022/08/22 07:28:41;;;;;;;12.30;6.30;;;;;;;29.21;45.46;100172.09;103852;1315;61358;-80
2022/08/22 07:31:35;;;;;;;8.60;6.10;;;;;;;29.23;45.48;100172.84;103039;1323;61352;-80
2022/08/22 07:34:26;;;;;;;10.00;5.90;;;;;;;29.23;45.38;100172.95;103228;1322;73795;-80
2022/08/22 07:36:58;;;;;;;10.40;5.50;;;;;;;29.24;45.39;100173.38;103237;1323;74770;-80
2022/08/22 07:39:34;;;;;;;9.60;6.30;;;;;;;29.25;45.43;100176.23;103279;1323;61424;-80
2022/08/22 07:42:10;;;;;;;13.40;6.80;;;;;;;29.25;45.34;100178.59;103268;1321;61303;-80
2022/08/22 07:45:11;;;;;;;8.00;5.50;;;;;;;29.24;45.33;100177.22;103055;1323;72570;-80
2022/08/22 07:48:04;;;;;;;9.80;6.00;;;;;;;29.24;45.35;100179.37;102520;1329;75114;-80
2022/08/22 07:50:33;;;;;;;10.70;6.30;;;;;;;29.24;45.45;100176.47;102679;1329;61560;-80
2022/08/22 07:53:15;;;;;;;10.20;6.70;;;;;;;29.24;45.44;100175.75;102597;1329;61266;-81
2022/08/22 07:55:42;;;;;;;11.60;6.60;;;;;;;29.24;45.45;100171.61;103019;1323;72834;-80
2022/08/22 07:58:10;;;;;;;11.70;7.10;;;;;;;29.24;45.40;100169.60;102765;1322;61460;-80
2022/08/22 08:00:41;;;;;;;13.30;6.90;;;;;;;29.25;45.26;100172.96;102843;1320;61438;-79
2022/08/22 08:03:06;;;;;;;9.20;6.20;;;;;;;29.25;45.42;100168.59;102830;1323;61505;-79
2022/08/22 08:05:34;;;;;;;11.90;5.90;;;;;;;29.25;45.36;100162.78;102969;1323;61367;-81
2022/08/22 08:08:06;;;;;;;13.80;7.20;;;;;;;29.26;45.39;100162.90;103044;1318;74808;-81
2022/08/22 08:10:34;;;;;;;11.20;6.90;;;;;;;29.24;45.50;100162.10;104000;1317;61035;-82
2022/08/22 08:13:06;;;;;;;9.70;6.10;;;;;;;29.25;45.59;100160.44;103603;1318;61541;-83
2022/08/22 08:15:32;;;;;;;9.70;6.30;;;;;;;29.26;45.48;100156.03;103792;1317;73913;-80
2022/08/22 08:18:02;;;;;;;9.70;6.30;;;;;;;29.26;45.66;100154.52;103740;1317;75718;-80
2022/08/22 08:20:29;;;;;;;9.70;6.10;;;;;;;29.27;45.55;100148.48;103532;1318;63267;-80
2022/08/22 08:22:55;;;;;;;11.60;6.30;;;;;;;29.27;45.50;100146.98;104042;1316;61829;-80
2022/08/22 08:25:23;;;;;;;10.40;6.40;;;;;;;29.28;45.37;100145.79;104187;1309;61462;-79
2022/08/22 08:30:45;;;;;;;9.70;6.50;;;;;;;29.30;45.53;100139.23;104460;1308;61301;-81
2022/08/22 08:33:17;;;;;;;10.20;6.60;;;;;;;29.31;45.57;100140.66;104543;1308;61141;-81
2022/08/22 08:35:50;;;;;;;11.80;6.50;;;;;;;29.31;45.57;100140.11;104512;1309;72961;-81
2022/08/22 08:38:21;;;;;;;9.90;6.70;;;;;;;29.31;45.69;100145.13;104502;1309;76043;-81
2022/08/22 08:41:25;;;;;;;9.20;6.70;;;;;;;29.31;45.81;100145.80;104289;1309;61412;-81
2022/08/22 08:44:06;;;;;;;8.30;6.40;;;;;;;29.31;45.75;100141.99;104565;1308;60446;-81
2022/08/22 08:47:16;;;;;;;9.60;6.30;;;;;;;29.32;45.67;100144.77;104495;1309;73792;-81
2022/08/22 08:49:50;;;;;;;7.70;6.10;;;;;;;29.32;45.63;100144.45;103884;1315;74978;-82
2022/08/22 08:52:35;;;;;;;9.80;6.30;;;;;;;29.32;45.54;100141.68;103881;1315;61418;-82
2022/08/22 08:55:04;;;;;;;9.10;6.20;;;;;;;29.33;45.82;100141.61;104001;1315;61323;-82
2022/08/22 08:57:53;;;;;;;8.50;6.10;;;;;;;29.34;45.58;100147.66;104126;1315;73903;-82
2022/08/22 09:00:46;;;;;;;9.30;6.70;;;;;;;29.34;45.62;100152.21;104021;1315;75934;-82
2022/08/22 09:03:14;;;;;;;10.90;6.50;;;;;;;29.34;45.78;100150.63;104210;1315;61470;-81
2022/08/22 09:05:49;;;;;;;;;;;;;;;29.34;45.74;100152.38;104202;1315;61215;-81
2022/08/22 09:08:21;;;;;;;10.10;7.00;;;;;;;29.31;45.80;100158.48;104136;1315;73772;-81
2022/08/22 09:11:15;;;;;;;8.40;6.30;;;;;;;29.32;45.63;100157.29;104142;1315;75059;-78
2022/08/22 09:13:49;;;;;;;8.50;6.40;;;;;;;29.32;45.64;100160.17;104147;1315;61899;-81
2022/08/22 09:16:30;;;;;;;9.50;6.60;;;;;;;29.33;45.71;100162.14;104149;1315;61408;-81
2022/08/22 09:19:31;;;;;;;11.10;6.70;;;;;;;29.33;45.65;100159.68;104061;1314;73580;-81
2022/08/22 09:22:28;;;;;;;7.50;6.30;;;;;;;29.33;45.71;100155.17;103694;1315;73333;-81
2022/08/22 09:25:10;;;;;;;9.30;6.50;;;;;;;29.34;45.58;100153.27;104143;1315;61290;-81
2022/08/22 09:28:01;;;;;;;8.50;6.40;;;;;;;29.34;45.80;100152.34;104465;1308;61121;-81
2022/08/22 09:31:13;;;;;;;9.80;6.60;;;;;;;29.35;45.65;100147.17;104448;1308;74300;-81
2022/08/22 09:34:00;;;;;;;8.50;6.50;;;;;;;29.35;45.82;100147.01;104334;1309;75953;-81
2022/08/22 09:36:31;;;;;;;9.50;7.40;;;;;;;29.35;45.51;100144.25;104413;1309;61262;-81
2022/08/22 09:39:15;;;;;;;9.60;6.70;;;;;;;29.36;45.84;100145.10;104441;1308;61170;-81
2022/08/22 09:41:49;;;;;;;9.40;7.00;;;;;;;29.35;45.81;100140.95;104536;1309;72967;-81
2022/08/22 09:44:36;;;;;;;10.20;7.00;;;;;;;29.36;45.86;100135.78;104610;1308;74604;-81
2022/08/22 09:47:01;;;;;;;9.60;6.90;;;;;;;29.36;45.56;100134.32;104434;1309;61237;-81
2022/08/22 09:49:32;;;;;;;9.40;6.80;;;;;;;29.37;45.62;100135.13;104429;1309;61393;-81
2022/08/22 09:52:23;;;;;;;9.00;6.20;;;;;;;29.38;45.64;100136.31;104558;1309;71902;-81
2022/08/22 09:55:21;;;;;;;8.30;6.70;;;;;;;29.38;45.73;100135.69;104415;1308;75847;-81
2022/08/22 09:57:52;;;;;;;;;;;;;;;29.39;45.70;100139.25;104627;1309;61301;-80
2022/08/22 10:00:45;;;;;;;12.30;6.80;;;;;;;29.38;45.64;100139.36;104566;1308;62431;-80
2022/08/22 10:03:20;;;;;;;9.60;6.90;;;;;;;29.39;45.72;100141.43;104445;1308;72808;-80
2022/08/22 10:05:49;;;;;;;10.90;7.30;;;;;;;29.39;45.70;100138.64;104357;1308;75776;-80
2022/08/22 10:08:29;;;;;;;9.10;6.90;;;;;;;29.40;45.67;100135.34;104497;1308;61471;-80
2022/08/22 10:10:54;;;;;;;;;;;;;;;29.40;45.72;100132.26;104435;1309;61393;-81
2022/08/22 10:13:25;;;;;;;8.00;6.30;;;;;;;29.39;45.61;100129.14;104297;1309;61252;-82
2022/08/22 10:16:01;;;;;;;7.70;6.90;;;;;;;29.40;45.70;100129.19;104313;1309;75705;-82
2022/08/22 10:18:33;;;;;;;8.70;6.50;;;;;;;29.41;45.68;100127.99;104490;1309;61416;-82
2022/08/22 10:21:10;;;;;;;9.50;6.40;;;;;;;29.41;45.63;100123.78;104911;1309;61305;-82
2022/08/22 10:24:00;;;;;;;9.10;7.10;;;;;;;29.41;45.57;100123.75;104370;1309;73727;-82
2022/08/22 10:26:46;;;;;;;9.40;6.10;;;;;;;29.42;45.69;100118.36;104464;1309;75572;-82
2022/08/22 10:29:34;;;;;;;9.50;6.90;;;;;;;29.43;45.66;100118.51;104572;1309;61336;-82
2022/08/22 10:32:20;;;;;;;8.00;6.40;;;;;;;29.44;45.57;100120.77;104474;1309;61320;-80
2022/08/22 10:34:47;;;;;;;9.30;6.40;;;;;;;29.44;45.64;100122.24;104346;1309;72910;-82
2022/08/22 10:37:35;;;;;;;7.50;6.60;;;;;;;29.44;45.73;100127.23;104356;1309;76783;-82
2022/08/22 10:40:13;;;;;;;9.10;6.20;;;;;;;29.45;45.58;100123.55;104369;1309;61531;-82
2022/08/22 10:43:10;;;;;;;6.90;6.10;;;;;;;29.45;45.69;100117.95;104455;1308;61133;-82
2022/08/22 10:45:41;;;;;;;7.30;6.10;;;;;;;29.45;45.59;100123.55;104435;1309;72849;-82
2022/08/22 10:48:07;;;;;;;10.20;6.60;;;;;;;29.45;45.64;100123.14;104684;1308;75738;-81
2022/08/22 10:51:01;;;;;;;8.80;6.30;;;;;;;29.46;45.60;100116.20;104607;1308;61256;-81
2022/08/22 10:53:53;;;;;;;9.40;6.30;;;;;;;29.46;45.71;100110.42;104953;1309;62746;-82
2022/08/22 10:56:42;;;;;;;8.80;5.90;;;;;;;29.46;45.69;100107.10;104604;1309;72660;-82
2022/08/22 10:59:25;;;;;;;;;;;;;;;29.46;45.85;100107.70;104262;1309;75335;-82
2022/08/22 11:02:01;;;;;;;8.30;6.10;;;;;;;29.43;45.74;100106.15;104590;1309;61142;-82
2022/08/22 11:04:35;;;;;;;8.70;6.20;;;;;;;29.45;45.65;100104.90;104592;1309;61212;-82
2022/08/22 11:07:37;;;;;;;7.90;6.20;;;;;;;29.44;45.74;100098.04;104565;1309;73980;-82
2022/08/22 11:10:29;;;;;;;9.00;6.20;;;;;;;29.44;45.77;100092.46;104366;1309;75252;-82
2022/08/22 11:13:38;;;;;;;7.90;6.40;;;;;;;29.45;45.75;100095.29;104404;1309;61226;-82
2022/08/22 11:16:12;;;;;;;8.50;6.10;;;;;;;29.44;45.72;100091.20;104233;1313;60427;-82
2022/08/22 11:19:01;;;;;;;8.30;5.90;;;;;;;29.45;45.73;100085.30;104131;1313;73674;-82
2022/08/22 11:21:36;;;;;;;7.00;5.80;;;;;;;29.45;45.63;100082.02;104169;1313;76368;-82
2022/08/22 11:24:38;;;;;;;10.20;6.00;;;;;;;29.45;45.85;100075.32;104249;1313;61322;-81
2022/08/22 11:27:26;;;;;;;8.60;6.30;;;;;;;29.45;45.74;100078.21;103606;1319;61360;-82
2022/08/22 11:30:05;;;;;;;7.90;6.00;;;;;;;29.45;45.64;100072.02;103236;1320;73036;-82
2022/08/22 11:33:09;;;;;;;7.30;6.00;;;;;;;29.45;45.81;100066.62;103084;1321;74890;-84
2022/08/22 11:35:42;;;;;;;8.10;6.20;;;;;;;29.45;45.76;100058.30;103615;1319;61326;-82
2022/08/22 11:38:11;;;;;;;8.00;6.00;;;;;;;29.45;45.84;100057.58;103342;1321;61299;-82
2022/08/22 11:40:49;;;;;;;9.80;6.40;;;;;;;29.45;45.84;100058.84;103667;1319;73651;-82
2022/08/22 11:43:21;;;;;;;7.10;6.20;;;;;;;29.45;45.86;100056.16;103426;1320;76086;-81
2022/08/22 11:45:50;;;;;;;7.90;5.80;;;;;;;29.44;45.85;100048.92;103644;1319;61350;-81
2022/08/22 11:48:19;;;;;;;9.40;6.40;;;;;;;29.45;45.81;100041.65;103429;1321;61601;-81
2022/08/22 11:50:52;;;;;;;7.60;5.60;;;;;;;29.44;45.82;100030.27;103840;1315;72884;-81
2022/08/22 11:53:26;;;;;;;7.10;6.00;;;;;;;29.44;45.72;100026.67;104126;1315;74800;-81
2022/08/22 11:56:11;;;;;;;6.80;6.10;;;;;;;29.44;45.82;100019.05;104253;1315;61800;-81
2022/08/22 11:58:55;;;;;;;7.60;6.50;;;;;;;29.43;45.83;100015.52;104245;1315;61281;-81
2022/08/22 12:01:36;;;;;;;8.40;5.90;;;;;;;29.44;45.94;100012.56;104378;1309;72374;-81
2022/08/22 12:04:37;;;;;;;7.20;6.00;;;;;;;29.44;45.74;100010.61;104595;1307;75824;-81
2022/08/22 12:07:16;;;;;;;8.20;5.90;;;;;;;29.43;45.87;100005.02;104394;1312;61176;-82
2022/08/22 12:09:50;;;;;;;7.80;6.00;;;;;;;29.43;45.86;100000.10;104387;1312;61279;-82
2022/08/22 12:12:24;;;;;;;7.70;6.00;;;;;;;29.44;45.84;100003.86;104289;1312;73624;-81
2022/08/22 12:15:28;;;;;;;7.10;5.90;;;;;;;29.43;45.83;100006.63;104461;1312;74819;-81
2022/08/22 12:18:12;;;;;;;7.80;6.10;;;;;;;29.43;46.02;100006.83;104147;1316;61525;-82
2022/08/22 12:20:56;;;;;;;8.20;6.40;;;;;;;29.43;46.10;100008.67;104119;1316;61491;-82
2022/08/22 12:23:59;;;;;;;7.90;6.40;;;;;;;29.43;45.95;100015.33;103927;1317;73772;-82